createdAt,value
2022-10-11T00:01:16.594Z,13.12
2022-10-11T00:03:46.421Z,13.15
2022-10-11T00:07:05.796Z,13.10
2022-10-11T00:09:32.217Z,13.10
2022-10-11T00:11:58.689Z,12.98
2022-10-11T00:14:26.395Z,13.01
2022-10-11T00:16:53.727Z,12.79
2022-10-11T00:19:20.728Z,12.75
2022-10-11T00:21:47.438Z,12.64
2022-10-11T00:24:15.949Z,12.57
2022-10-11T00:26:46.560Z,12.54
2022-10-11T00:29:13.601Z,12.49
2022-10-11T00:31:40.347Z,12.47
2022-10-11T00:34:08.245Z,12.47
2022-10-11T00:36:34.688Z,12.44
2022-10-11T00:39:00.998Z,12.38
2022-10-11T00:41:27.403Z,12.36
2022-10-11T00:44:16.484Z,12.36
2022-10-11T00:46:51.793Z,12.29
2022-10-11T00:49:33.542Z,12.30
2022-10-11T00:52:11.520Z,12.29
2022-10-11T00:54:41.880Z,12.29
2022-10-11T00:57:12.052Z,12.34
2022-10-11T00:59:43.480Z,12.37
2022-10-11T01:02:11.160Z,12.36
2022-10-11T01:04:37.539Z,12.32
2022-10-11T01:07:04.007Z,12.32
2022-10-11T01:09:31.052Z,12.32
2022-10-11T01:12:01.176Z,12.32
2022-10-11T01:14:40.494Z,12.39
2022-10-11T01:17:22.211Z,12.42
2022-10-11T01:20:03.916Z,12.49
2022-10-11T01:22:55.207Z,12.32
2022-10-11T01:25:49.670Z,12.33
2022-10-11T01:28:19.146Z,12.24
2022-10-11T01:30:46.332Z,12.25
2022-10-11T01:33:30.623Z,12.13
2022-10-11T01:36:09.001Z,12.32
2022-10-11T01:38:44.220Z,12.47
2022-10-11T01:41:19.259Z,12.57
2022-10-11T01:43:46.160Z,12.60
2022-10-11T01:46:13.309Z,12.63
2022-10-11T01:48:55.220Z,12.61
2022-10-11T01:51:25.772Z,12.59
2022-10-11T01:54:10.442Z,12.58
2022-10-11T01:57:13.121Z,12.54
2022-10-11T02:00:01.172Z,12.52
2022-10-11T02:03:01.551Z,12.54
2022-10-11T02:05:47.000Z,12.56
2022-10-11T02:08:19.416Z,12.57
2022-10-11T02:10:59.251Z,12.53
2022-10-11T02:13:38.037Z,12.53
2022-10-11T02:16:11.186Z,12.54
2022-10-11T02:18:41.768Z,12.42
2022-10-11T02:21:13.131Z,12.24
2022-10-11T02:23:45.591Z,12.21
2022-10-11T02:26:13.660Z,12.23
2022-10-11T02:28:43.018Z,12.26
2022-10-11T02:31:11.199Z,12.24
2022-10-11T02:33:44.732Z,12.24
2022-10-11T02:36:19.306Z,12.26
2022-10-11T02:38:52.925Z,12.36
2022-10-11T02:41:32.352Z,12.30
2022-10-11T02:44:17.112Z,12.35
2022-10-11T02:46:45.495Z,12.32
2022-10-11T02:49:13.257Z,12.42
2022-10-11T02:51:39.799Z,12.30
2022-10-11T02:54:06.551Z,12.27
2022-10-11T02:56:32.999Z,12.18
2022-10-11T02:58:59.705Z,12.16
2022-10-11T03:01:26.222Z,12.14
2022-10-11T03:03:52.708Z,12.10
2022-10-11T03:06:19.222Z,12.10
2022-10-11T03:08:45.595Z,12.07
2022-10-11T03:11:11.891Z,12.06
2022-10-11T03:13:38.256Z,12.13
2022-10-11T03:16:04.953Z,12.17
2022-10-11T03:18:31.562Z,12.10
2022-10-11T03:20:58.007Z,12.11
2022-10-11T03:23:24.377Z,12.01
2022-10-11T03:25:51.978Z,12.04
2022-10-11T03:28:18.874Z,12.02
2022-10-11T03:30:48.329Z,11.82
2022-10-11T03:33:15.618Z,11.71
2022-10-11T03:35:48.355Z,11.68
2022-10-11T03:38:18.255Z,11.80
2022-10-11T03:40:44.852Z,11.76
2022-10-11T03:43:11.420Z,11.46
2022-10-11T03:45:38.466Z,11.36
2022-10-11T03:48:05.316Z,11.28
2022-10-11T03:50:31.719Z,11.06
2022-10-11T03:52:58.251Z,10.95
2022-10-11T03:55:24.704Z,10.99
2022-10-11T03:57:51.041Z,10.80
2022-10-11T04:00:17.573Z,10.85
2022-10-11T04:02:44.016Z,10.72
2022-10-11T04:05:11.032Z,10.74
2022-10-11T04:07:37.414Z,10.72
2022-10-11T04:10:04.137Z,10.61
2022-10-11T04:12:30.562Z,10.36
2022-10-11T04:14:56.873Z,10.54
2022-10-11T04:17:23.178Z,10.46
2022-10-11T04:19:49.665Z,10.56
2022-10-11T04:22:16.711Z,10.37
2022-10-11T04:24:43.311Z,10.27
2022-10-11T04:27:10.264Z,10.22
2022-10-11T04:29:36.576Z,10.09
2022-10-11T04:32:03.143Z,10.03
2022-10-11T04:34:29.519Z,9.96
2022-10-11T04:36:55.827Z,9.90
2022-10-11T04:39:22.232Z,9.84
2022-10-11T04:41:48.645Z,9.80
2022-10-11T04:44:14.995Z,9.72
2022-10-11T04:46:41.431Z,9.70
2022-10-11T04:49:07.735Z,9.59
2022-10-11T04:51:34.137Z,9.62
2022-10-11T04:54:00.537Z,9.53
2022-10-11T04:56:26.846Z,9.44
2022-10-11T04:58:54.652Z,9.42
2022-10-11T05:01:21.411Z,9.43
2022-10-11T05:03:48.440Z,9.45
2022-10-11T05:06:14.815Z,9.36
2022-10-11T05:08:41.285Z,9.30
2022-10-11T05:11:11.773Z,9.21
2022-10-11T05:13:38.664Z,9.13
2022-10-11T05:16:10.322Z,9.12
2022-10-11T05:18:37.512Z,9.06
2022-10-11T05:21:07.416Z,8.94
2022-10-11T05:23:35.521Z,8.95
2022-10-11T05:26:03.077Z,8.87
2022-10-11T05:28:29.802Z,8.84
2022-10-11T05:30:56.332Z,8.84
2022-10-11T05:33:23.107Z,8.73
2022-10-11T05:35:49.576Z,8.75
2022-10-11T05:38:16.487Z,8.64
2022-10-11T05:40:43.140Z,8.59
2022-10-11T05:43:11.824Z,8.59
2022-10-11T05:45:39.568Z,8.46
2022-10-11T05:48:06.566Z,8.44
2022-10-11T05:50:33.399Z,8.46
2022-10-11T05:52:59.887Z,8.43
2022-10-11T05:55:26.296Z,8.53
2022-10-11T05:57:57.375Z,8.44
2022-10-11T06:00:24.441Z,8.52
2022-10-11T06:02:50.798Z,8.42
2022-10-11T06:05:17.199Z,8.38
2022-10-11T06:07:43.931Z,8.34
2022-10-11T06:10:10.931Z,8.36
2022-10-11T06:12:37.478Z,8.32
2022-10-11T06:15:04.941Z,8.34
2022-10-11T06:17:31.572Z,8.37
2022-10-11T06:19:57.935Z,8.36
2022-10-11T06:22:24.452Z,8.36
2022-10-11T06:24:50.836Z,8.37
2022-10-11T06:27:17.251Z,8.31
2022-10-11T06:29:43.683Z,8.30
2022-10-11T06:32:10.036Z,8.37
2022-10-11T06:34:36.419Z,8.39
2022-10-11T06:37:02.814Z,8.42
2022-10-11T06:39:29.425Z,8.38
2022-10-11T06:41:55.791Z,8.40
2022-10-11T06:44:22.380Z,8.44
2022-10-11T06:46:48.757Z,8.49
2022-10-11T06:49:19.332Z,8.54
2022-10-11T06:51:48.736Z,8.55
2022-10-11T06:54:15.136Z,8.63
2022-10-11T06:56:41.504Z,8.65
2022-10-11T06:59:08.961Z,8.72
2022-10-11T07:01:35.384Z,8.89
2022-10-11T07:07:20.519Z,8.93
2022-10-11T07:09:46.919Z,9.00
2022-10-11T07:12:13.358Z,9.03
2022-10-11T07:14:39.737Z,9.09
2022-10-11T07:17:06.211Z,9.10
2022-10-11T07:19:32.675Z,9.31
2022-10-11T07:21:59.060Z,9.38
2022-10-11T07:24:25.447Z,9.43
2022-10-11T07:26:51.825Z,9.41
2022-10-11T07:29:18.319Z,9.44
2022-10-11T07:31:45.018Z,9.56
2022-10-11T07:34:11.500Z,9.68
2022-10-11T07:36:37.976Z,9.80
2022-10-11T07:39:06.988Z,9.87
2022-10-11T07:41:33.837Z,9.96
2022-10-11T07:44:01.011Z,9.94
2022-10-11T07:46:27.386Z,10.07
2022-10-11T07:48:54.456Z,10.08
2022-10-11T07:51:22.324Z,10.22
2022-10-11T07:53:50.859Z,10.29
2022-10-11T07:56:20.688Z,10.31
2022-10-11T07:58:57.085Z,10.38
2022-10-11T08:01:23.684Z,10.48
2022-10-11T08:03:50.990Z,10.51
2022-10-11T08:06:19.775Z,10.52
2022-10-11T08:08:46.505Z,10.69
2022-10-11T08:11:20.643Z,10.89
2022-10-11T08:13:48.158Z,10.97
2022-10-11T08:16:14.749Z,11.05
2022-10-11T08:18:41.458Z,11.08
2022-10-11T08:21:13.457Z,11.01
2022-10-11T08:23:42.725Z,11.08
2022-10-11T08:26:09.972Z,11.20
2022-10-11T08:28:38.420Z,11.20
2022-10-11T08:31:05.617Z,11.19
2022-10-11T08:33:32.095Z,11.20
2022-10-11T08:35:58.883Z,11.47
2022-10-11T08:38:25.381Z,11.54
2022-10-11T08:40:57.856Z,11.68
2022-10-11T08:43:30.946Z,11.74
2022-10-11T08:46:03.018Z,11.83
2022-10-11T08:48:37.727Z,11.75
2022-10-11T08:51:22.549Z,11.82
2022-10-11T08:53:57.939Z,12.10
2022-10-11T08:56:26.573Z,12.11
2022-10-11T08:59:02.912Z,12.17
2022-10-11T09:01:31.139Z,12.31
2022-10-11T09:04:00.954Z,12.37
2022-10-11T09:06:40.042Z,12.54
2022-10-11T09:09:18.425Z,12.51
2022-10-11T09:12:23.061Z,12.57
2022-10-11T09:15:12.872Z,12.68
2022-10-11T09:18:13.612Z,12.70
2022-10-11T09:21:14.588Z,12.84
2022-10-11T09:24:07.200Z,13.08
2022-10-11T09:26:44.020Z,12.99
2022-10-11T09:29:43.950Z,13.20
2022-10-11T09:32:16.767Z,13.27
2022-10-11T09:34:45.409Z,13.62
2022-10-11T09:37:27.885Z,13.49
2022-10-11T09:40:02.101Z,13.54
2022-10-11T09:42:28.435Z,13.93
2022-10-11T09:44:57.169Z,13.60
2022-10-11T09:47:29.284Z,13.82
2022-10-11T09:50:14.182Z,14.05
2022-10-11T09:52:51.023Z,14.07
2022-10-11T09:55:50.813Z,14.17
2022-10-11T09:58:32.542Z,14.28
2022-10-11T10:01:11.183Z,14.29
2022-10-11T10:03:44.373Z,14.45
2022-10-11T10:06:25.863Z,14.52
2022-10-11T10:08:52.906Z,14.53
2022-10-11T10:11:19.595Z,14.69
2022-10-11T10:13:52.227Z,14.65
2022-10-11T10:16:25.873Z,14.68
2022-10-11T10:19:06.074Z,15.10
2022-10-11T10:21:46.624Z,14.86
2022-10-11T10:24:27.433Z,14.81
2022-10-11T10:27:18.021Z,14.74
2022-10-11T10:30:01.686Z,14.87
2022-10-11T10:32:34.360Z,14.89
2022-10-11T10:35:35.338Z,15.05
2022-10-11T10:38:16.528Z,14.88
2022-10-11T10:40:47.651Z,15.31
2022-10-11T10:43:17.287Z,15.36
2022-10-11T10:46:03.444Z,15.44
2022-10-11T10:49:23.291Z,15.45
2022-10-11T10:51:37.915Z,15.15
2022-10-11T10:54:41.899Z,14.97
2022-10-11T10:57:18.990Z,15.20
2022-10-11T11:00:00.767Z,15.50
2022-10-11T11:02:41.671Z,15.40
2022-10-11T11:05:43.687Z,15.69
2022-10-11T11:08:10.019Z,15.98
2022-10-11T11:10:55.759Z,15.93
2022-10-11T11:13:40.746Z,15.88
2022-10-11T11:17:10.571Z,15.86
2022-10-11T11:20:03.120Z,16.20
2022-10-11T11:22:38.279Z,16.07
2022-10-11T11:25:19.495Z,16.21
2022-10-11T11:28:04.636Z,16.06
2022-10-11T11:30:55.292Z,16.12
2022-10-11T11:33:33.438Z,15.99
2022-10-11T11:36:05.908Z,16.03
2022-10-11T11:38:38.867Z,16.11
2022-10-11T11:41:24.036Z,16.23
2022-10-11T11:43:55.047Z,16.22
2022-10-11T11:46:30.088Z,16.54
2022-10-11T11:49:00.508Z,16.49
2022-10-11T11:51:42.729Z,16.25
2022-10-11T11:54:53.900Z,16.10
2022-10-11T11:57:27.367Z,15.96
2022-10-11T11:59:53.615Z,16.14
2022-10-11T12:02:29.897Z,16.17
2022-10-11T12:04:57.289Z,16.23
2022-10-11T12:07:26.415Z,16.52
2022-10-11T12:10:13.986Z,16.38
2022-10-11T12:12:40.956Z,16.27
2022-10-11T12:15:10.162Z,16.27
2022-10-11T12:17:54.716Z,16.22
2022-10-11T12:20:23.688Z,16.46
2022-10-11T12:22:49.922Z,16.47
2022-10-11T12:25:18.551Z,16.30
2022-10-11T12:27:48.220Z,16.08
2022-10-11T12:30:53.401Z,16.17
2022-10-11T12:33:24.452Z,15.86
2022-10-11T12:35:53.564Z,15.90
2022-10-11T12:38:33.863Z,16.00
2022-10-11T12:41:08.942Z,15.92
2022-10-11T12:43:56.900Z,15.78
2022-10-11T12:46:29.387Z,15.83
2022-10-11T12:49:13.941Z,15.85
2022-10-11T12:52:02.091Z,16.06
2022-10-11T12:54:55.832Z,15.94
2022-10-11T12:57:45.918Z,16.19
2022-10-11T13:00:28.993Z,15.81
2022-10-11T13:03:27.241Z,15.65
2022-10-11T13:06:01.398Z,15.34
2022-10-11T13:08:36.145Z,15.45
2022-10-11T13:11:06.580Z,15.46
2022-10-11T13:13:45.095Z,15.77
2022-10-11T13:16:18.189Z,15.77
2022-10-11T13:18:47.375Z,15.58
2022-10-11T13:21:30.278Z,15.52
2022-10-11T13:24:17.444Z,15.68
2022-10-11T13:26:46.479Z,15.45
2022-10-11T13:29:25.956Z,15.42
2022-10-11T13:31:52.614Z,15.39
2022-10-11T13:34:23.179Z,15.27
2022-10-11T13:36:56.348Z,15.34
2022-10-11T13:39:31.300Z,15.45
2022-10-11T13:41:59.354Z,15.48
2022-10-11T13:44:26.074Z,15.50
2022-10-11T13:46:53.336Z,15.50
2022-10-11T13:49:27.329Z,15.57
2022-10-11T13:52:02.297Z,15.59
2022-10-11T13:54:54.402Z,15.52
2022-10-11T13:57:24.235Z,15.60
2022-10-11T13:59:50.586Z,15.49
2022-10-11T14:02:21.346Z,15.47
2022-10-11T14:04:48.907Z,15.68
2022-10-11T14:07:35.550Z,15.75
2022-10-11T14:10:02.471Z,15.59
2022-10-11T14:12:31.912Z,15.78
2022-10-11T14:15:00.213Z,15.82
2022-10-11T14:17:45.762Z,15.77
2022-10-11T14:20:15.434Z,15.74
2022-10-11T14:22:41.779Z,15.51
2022-10-11T14:25:08.104Z,15.39
2022-10-11T14:27:34.699Z,15.29
2022-10-11T14:30:24.139Z,15.29
2022-10-11T14:32:49.791Z,15.35
2022-10-11T14:35:18.971Z,15.36
2022-10-11T14:37:45.857Z,15.19
2022-10-11T14:40:15.482Z,15.27
2022-10-11T14:42:41.841Z,15.26
2022-10-11T14:45:08.733Z,15.28
2022-10-11T14:47:39.354Z,15.42
2022-10-11T14:50:44.448Z,15.28
2022-10-11T14:53:11.644Z,15.43
2022-10-11T14:55:39.749Z,15.39
2022-10-11T14:58:07.508Z,15.29
2022-10-11T15:00:34.990Z,15.26
2022-10-11T15:03:03.712Z,15.30
2022-10-11T15:05:33.947Z,15.27
2022-10-11T15:08:01.843Z,15.26
2022-10-11T15:10:39.857Z,15.19
2022-10-11T15:13:07.393Z,15.17
2022-10-11T15:15:37.693Z,15.21
2022-10-11T15:18:06.074Z,15.23
2022-10-11T15:20:38.800Z,15.11
2022-10-11T15:23:07.655Z,15.11
2022-10-11T15:25:34.565Z,15.01
2022-10-11T15:28:01.203Z,15.04
2022-10-11T15:30:37.079Z,14.98
2022-10-11T15:33:06.841Z,14.94
2022-10-11T15:35:33.271Z,14.94
2022-10-11T15:38:00.163Z,14.88
2022-10-11T15:40:35.403Z,14.89
2022-10-11T15:43:02.463Z,14.82
2022-10-11T15:45:29.851Z,14.80
2022-10-11T15:47:56.169Z,14.65
2022-10-11T15:50:34.966Z,14.59
2022-10-11T15:53:05.758Z,14.49
2022-10-11T15:55:33.838Z,14.55
2022-10-11T15:58:01.471Z,14.51
2022-10-11T16:00:28.640Z,14.50
2022-10-11T16:02:55.568Z,14.42
2022-10-11T16:05:24.614Z,14.41
2022-10-11T16:07:51.779Z,14.38
2022-10-11T16:10:18.600Z,14.40
2022-10-11T16:12:44.893Z,14.30
2022-10-11T16:15:12.376Z,14.25
2022-10-11T16:17:38.772Z,14.22
2022-10-11T16:20:06.837Z,14.13
2022-10-11T16:22:34.324Z,14.06
2022-10-11T16:25:02.116Z,14.10
2022-10-11T16:27:28.447Z,14.04
2022-10-11T16:29:54.753Z,13.97
2022-10-11T16:32:21.932Z,13.86
2022-10-11T16:34:48.265Z,13.81
2022-10-11T16:37:14.588Z,13.77
2022-10-11T16:39:40.991Z,13.71
2022-10-11T16:42:07.503Z,13.59
2022-10-11T16:44:33.971Z,13.53
2022-10-11T16:47:00.493Z,13.46
2022-10-11T16:49:28.423Z,13.44
2022-10-11T16:51:56.364Z,13.36
2022-10-11T16:54:22.934Z,13.19
2022-10-11T16:56:49.784Z,13.11
2022-10-11T16:59:16.521Z,12.96
2022-10-11T17:01:44.914Z,12.85
2022-10-11T17:04:12.589Z,12.70
2022-10-11T17:06:40.227Z,12.61
2022-10-11T17:09:07.204Z,12.49
2022-10-11T17:11:34.023Z,12.41
2022-10-11T17:14:01.279Z,12.39
2022-10-11T17:16:28.167Z,12.26
2022-10-11T17:18:54.467Z,12.20
2022-10-11T17:21:21.902Z,12.16
2022-10-11T17:23:49.036Z,12.14
2022-10-11T17:26:26.824Z,12.00
2022-10-11T17:28:55.104Z,11.93
2022-10-11T17:31:21.575Z,11.91
2022-10-11T17:33:48.136Z,11.84
2022-10-11T17:36:19.308Z,11.83
2022-10-11T17:38:45.675Z,11.91
2022-10-11T17:41:12.196Z,11.90
2022-10-11T17:43:38.938Z,11.84
2022-10-11T17:46:06.612Z,11.77
2022-10-11T17:48:36.479Z,11.80
2022-10-11T17:51:08.370Z,11.71
2022-10-11T17:53:35.536Z,11.80
2022-10-11T17:56:28.206Z,11.57
2022-10-11T17:58:57.556Z,11.49
2022-10-11T18:01:27.698Z,11.37
2022-10-11T18:04:02.008Z,11.29
2022-10-11T18:06:31.092Z,11.09
2022-10-11T18:09:00.576Z,11.00
2022-10-11T18:11:26.999Z,10.93
2022-10-11T18:13:53.537Z,10.87
2022-10-11T18:16:22.626Z,10.69
2022-10-11T18:18:49.242Z,10.65
2022-10-11T18:21:18.232Z,10.53
2022-10-11T18:23:44.989Z,10.47
2022-10-11T18:26:13.749Z,10.41
2022-10-11T18:28:40.909Z,10.33
2022-10-11T18:31:12.979Z,10.21
2022-10-11T18:33:41.259Z,10.13
2022-10-11T18:36:09.286Z,10.06
2022-10-11T18:38:37.801Z,10.04
2022-10-11T18:41:09.316Z,10.04
2022-10-11T18:43:36.239Z,10.06
2022-10-11T18:46:08.531Z,10.09
2022-10-11T18:48:35.004Z,10.14
2022-10-11T18:51:07.056Z,10.17
2022-10-11T18:53:34.756Z,10.10
2022-10-11T18:56:02.433Z,10.15
2022-10-11T18:58:30.290Z,10.07
2022-10-11T19:01:04.277Z,10.02
2022-10-11T19:03:34.948Z,10.03
2022-10-11T19:06:07.214Z,10.02
2022-10-11T19:08:33.968Z,10.04
2022-10-11T19:11:08.039Z,10.04
2022-10-11T19:13:35.021Z,10.00
2022-10-11T19:16:06.959Z,9.94
2022-10-11T19:18:33.863Z,10.02
2022-10-11T19:21:05.662Z,9.88
2022-10-11T19:23:34.404Z,9.84
2022-10-11T19:26:01.872Z,9.76
2022-10-11T19:28:29.874Z,9.74
2022-10-11T19:31:05.040Z,9.67
2022-10-11T19:33:32.811Z,9.63
2022-10-11T19:36:02.436Z,9.52
2022-10-11T19:38:29.868Z,9.48
2022-10-11T19:40:56.246Z,9.46
2022-10-11T19:43:23.013Z,9.41
2022-10-11T19:45:49.630Z,9.30
2022-10-11T19:48:15.953Z,9.25
2022-10-11T19:50:42.311Z,9.27
2022-10-11T19:53:08.702Z,9.15
2022-10-11T19:55:35.283Z,9.18
2022-10-11T19:58:07.338Z,9.19
2022-10-11T20:00:34.956Z,9.09
2022-10-11T20:03:01.241Z,9.16
2022-10-11T20:05:27.544Z,9.20
2022-10-11T20:07:53.840Z,9.22
2022-10-11T20:10:20.159Z,9.16
2022-10-11T20:12:46.480Z,9.17
2022-10-11T20:15:12.802Z,9.16
2022-10-11T20:17:48.260Z,9.09
2022-10-11T20:20:15.198Z,9.07
2022-10-11T20:22:41.544Z,9.02
2022-10-11T20:25:08.299Z,9.00
2022-10-11T20:27:34.784Z,8.91
2022-10-11T20:30:01.398Z,8.90
2022-10-11T20:32:28.307Z,8.71
2022-10-11T20:34:54.588Z,8.58
2022-10-11T20:37:20.904Z,8.65
2022-10-11T20:39:47.184Z,8.56
2022-10-11T20:42:13.468Z,8.53
2022-10-11T20:44:39.931Z,8.43
2022-10-11T20:47:06.209Z,8.37
2022-10-11T20:49:32.586Z,8.36
2022-10-11T20:51:58.979Z,8.29
2022-10-11T20:54:25.420Z,8.25
2022-10-11T20:56:51.715Z,8.24
2022-10-11T20:59:18.003Z,8.20
2022-10-11T21:01:44.417Z,8.21
2022-10-11T21:04:17.609Z,8.18
2022-10-11T21:06:44.019Z,8.20
2022-10-11T21:09:12.657Z,8.09
2022-10-11T21:11:41.972Z,8.12
2022-10-11T21:14:08.296Z,8.08
2022-10-11T21:16:34.820Z,7.98
2022-10-11T21:19:02.124Z,7.96
2022-10-11T21:21:29.503Z,7.93
2022-10-11T21:23:57.636Z,7.88
2022-10-11T21:26:24.380Z,7.74
2022-10-11T21:28:51.669Z,7.65
2022-10-11T21:31:20.107Z,7.59
2022-10-11T21:33:46.501Z,7.55
2022-10-11T21:36:21.644Z,7.55
2022-10-11T21:38:49.165Z,7.64
2022-10-11T21:41:26.514Z,7.67
2022-10-11T21:43:53.082Z,7.64
2022-10-11T21:46:41.732Z,7.69
2022-10-11T21:49:11.846Z,7.69
2022-10-11T21:51:38.171Z,7.61
2022-10-11T21:54:05.161Z,7.56
2022-10-11T21:56:31.563Z,7.51
2022-10-11T21:58:57.936Z,7.43
2022-10-11T22:01:24.538Z,7.44
2022-10-11T22:03:52.595Z,7.41
2022-10-11T22:06:18.972Z,7.31
2022-10-11T22:08:45.534Z,7.28
2022-10-11T22:11:11.933Z,7.33
2022-10-11T22:13:38.313Z,7.34
2022-10-11T22:16:07.026Z,7.28
2022-10-11T22:18:33.969Z,7.27
2022-10-11T22:21:21.493Z,7.18
2022-10-11T22:23:50.311Z,7.16
2022-10-11T22:26:21.300Z,7.21
2022-10-11T22:28:47.960Z,7.22
2022-10-11T22:31:16.553Z,7.29
2022-10-11T22:33:42.968Z,7.33
2022-10-11T22:36:11.840Z,7.31
2022-10-11T22:38:40.888Z,7.26
2022-10-11T22:41:07.904Z,7.22
2022-10-11T22:43:34.436Z,7.22
2022-10-11T22:46:01.174Z,7.24
2022-10-11T22:48:27.613Z,7.18
2022-10-11T22:50:54.175Z,7.04
2022-10-11T22:53:21.016Z,6.99
2022-10-11T22:55:47.471Z,6.86
2022-10-11T22:58:14.260Z,6.80
2022-10-11T23:00:40.571Z,6.81
2022-10-11T23:03:09.848Z,6.77
2022-10-11T23:05:36.908Z,6.77
2022-10-11T23:08:03.387Z,6.62
2022-10-11T23:10:29.828Z,6.71
2022-10-11T23:12:56.099Z,6.73
2022-10-11T23:15:22.544Z,6.75
2022-10-11T23:17:48.851Z,6.71
2022-10-11T23:20:15.288Z,6.61
2022-10-11T23:22:41.616Z,6.55
2022-10-11T23:25:08.439Z,6.47
2022-10-11T23:27:34.920Z,6.40
2022-10-11T23:30:01.452Z,6.37
2022-10-11T23:32:27.802Z,6.36
2022-10-11T23:34:54.055Z,6.31
2022-10-11T23:37:20.544Z,6.20
2022-10-11T23:39:46.902Z,6.02
2022-10-11T23:42:13.525Z,6.18
2022-10-11T23:44:40.071Z,6.27
2022-10-11T23:47:06.361Z,6.34
2022-10-11T23:49:32.659Z,6.43
2022-10-11T23:51:59.019Z,6.45
2022-10-11T23:54:25.335Z,6.53
2022-10-11T23:56:51.632Z,6.50
2022-10-11T23:59:17.963Z,6.58
